Time;durP1;ratioP1;P1;durP2;ratioP2;P2;SDS_P1;SDS_P2;PMS_P1;PMS_P2;Temp;Humidity;BMP_temperature;BMP_pressure;BME280_temperature;BME280_humidity;BME280_pressure;Samples;Min_cycle;Max_cycle;Signal;HPM_P1;HPM_P2
2023/01/05 00:01:38;;;;;;;27.35;16.63;;;;;;;;;;4954493;28;20049;-63
2023/01/05 00:04:06;;;;;;;27.60;16.63;;;;;;;;;;4954403;28;20058;-63
2023/01/05 00:06:34;;;;;;;26.98;16.23;;;;;;;;;;4954442;28;20042;-62
2023/01/05 00:09:02;;;;;;;28.95;17.73;;;;;;;;;;4954205;28;20421;-62
2023/01/05 00:22:40;;;;;;;46.88;20.08;;;;;;;;;;4954227;28;20035;-62
2023/01/05 00:25:12;;;;;;;52.15;22.05;;;;;;;;;;4954199;28;20131;-63
2023/01/05 00:27:41;;;;;;;54.15;22.00;;;;;;;;;;4954123;28;20524;-63
2023/01/05 00:30:09;;;;;;;62.42;23.63;;;;;;;;;;4954128;28;20066;-62
2023/01/05 00:32:37;;;;;;;58.38;24.88;;;;;;;;;;4952770;29;20062;-62
2023/01/05 00:35:05;;;;;;;76.57;25.80;;;;;;;;;;4952774;28;20039;-63
2023/01/05 00:37:35;;;;;;;72.90;24.67;;;;;;;;;;4953956;28;20070;-62
2023/01/05 00:40:02;;;;;;;96.95;26.85;;;;;;;;;;4952717;29;20059;-62
2023/01/05 00:42:32;;;;;;;68.18;25.08;;;;;;;;;;4952950;28;20047;-63
2023/01/05 00:44:59;;;;;;;78.97;26.25;;;;;;;;;;4953809;28;20055;-63
2023/01/05 00:47:27;;;;;;;98.78;25.83;;;;;;;;;;4953705;28;20047;-62
2023/01/05 00:49:54;;;;;;;87.88;26.77;;;;;;;;;;4952785;29;20041;-62
2023/01/05 00:52:21;;;;;;;83.68;26.15;;;;;;;;;;4936707;29;20071;-62
2023/01/05 00:54:49;;;;;;;90.20;26.88;;;;;;;;;;4952577;28;20051;-63
2023/01/05 00:57:17;;;;;;;95.00;26.65;;;;;;;;;;4952481;28;20110;-62
2023/01/05 00:59:44;;;;;;;126.63;25.67;;;;;;;;;;4956621;28;20046;-63
2023/01/05 01:02:13;;;;;;;132.30;24.20;;;;;;;;;;4955889;28;20379;-62
2023/01/05 01:04:41;;;;;;;112.30;24.33;;;;;;;;;;4957219;28;20054;-62
2023/01/05 01:07:08;;;;;;;104.63;25.00;;;;;;;;;;4955872;28;20545;-63
2023/01/05 01:09:36;;;;;;;103.32;24.48;;;;;;;;;;4957040;28;20486;-63
2023/01/05 01:12:03;;;;;;;91.60;22.73;;;;;;;;;;4939945;29;20134;-63
2023/01/05 01:14:31;;;;;;;117.95;22.65;;;;;;;;;;4955813;28;20053;-63
2023/01/05 01:16:58;;;;;;;145.75;23.80;;;;;;;;;;4955686;28;20047;-62
2023/01/05 01:19:26;;;;;;;137.23;24.02;;;;;;;;;;4955639;28;20114;-63
2023/01/05 01:21:54;;;;;;;124.63;22.92;;;;;;;;;;4957027;28;20098;-62
2023/01/05 01:24:23;;;;;;;143.77;26.75;;;;;;;;;;4956891;28;20050;-62
2023/01/05 01:26:51;;;;;;;106.25;23.55;;;;;;;;;;4956816;28;20091;-62
2023/01/05 01:29:19;;;;;;;124.28;24.13;;;;;;;;;;4955524;29;20058;-62
2023/01/05 01:31:47;;;;;;;112.57;23.98;;;;;;;;;;4955500;28;20036;-63
2023/01/05 01:34:14;;;;;;;114.40;23.17;;;;;;;;;;4956611;28;20050;-63
2023/01/05 01:36:42;;;;;;;153.50;25.40;;;;;;;;;;4956436;28;20039;-63
2023/01/05 01:39:11;;;;;;;148.25;24.70;;;;;;;;;;4955363;29;20047;-62
2023/01/05 01:41:41;;;;;;;141.18;26.00;;;;;;;;;;4955344;29;20400;-62
2023/01/05 01:44:27;;;;;;;114.03;22.33;;;;;;;;;;4956363;28;20150;-63
2023/01/05 01:46:55;;;;;;;128.85;24.00;;;;;;;;;;4955041;28;20101;-63
2023/01/05 01:49:23;;;;;;;96.28;22.23;;;;;;;;;;4955139;28;20048;-62
2023/01/05 01:51:50;;;;;;;106.25;23.65;;;;;;;;;;4955134;28;20507;-63
2023/01/05 01:54:18;;;;;;;94.82;22.33;;;;;;;;;;4955108;28;20102;-63
2023/01/05 01:56:51;;;;;;;98.35;21.60;;;;;;;;;;4955036;28;20043;-62
2023/01/05 01:59:18;;;;;;;97.35;22.77;;;;;;;;;;4955056;28;20079;-63
2023/01/05 02:01:48;;;;;;;100.07;21.95;;;;;;;;;;4954801;28;20039;-63
2023/01/05 02:04:15;;;;;;;103.30;23.40;;;;;;;;;;4954860;28;20047;-63
2023/01/05 02:06:43;;;;;;;109.95;23.08;;;;;;;;;;4954564;28;20397;-63
2023/01/05 02:09:10;;;;;;;73.28;21.95;;;;;;;;;;4955947;28;20081;-62
2023/01/05 02:11:41;;;;;;;97.15;22.75;;;;;;;;;;4954712;28;20043;-62
2023/01/05 02:14:23;;;;;;;99.00;23.35;;;;;;;;;;4955898;28;20755;-62
2023/01/05 02:16:51;;;;;;;93.35;23.33;;;;;;;;;;4938876;29;20509;-63
2023/01/05 02:19:37;;;;;;;97.00;23.42;;;;;;;;;;4954429;28;20054;-63
2023/01/05 02:22:11;;;;;;;94.00;26.25;;;;;;;;;;4954596;28;20071;-62
2023/01/05 02:24:57;;;;;;;89.65;24.67;;;;;;;;;;4954621;28;20047;-63
2023/01/05 02:27:25;;;;;;;96.60;25.50;;;;;;;;;;4955674;29;20055;-63
2023/01/05 02:30:11;;;;;;;80.18;25.45;;;;;;;;;;4954550;28;20051;-63
2023/01/05 02:32:53;;;;;;;82.88;24.23;;;;;;;;;;4954365;28;20047;-63
2023/01/05 02:35:33;;;;;;;93.63;25.00;;;;;;;;;;4954404;28;20049;-63
2023/01/05 02:38:01;;;;;;;101.75;26.52;;;;;;;;;;4954228;28;20054;-63
2023/01/05 02:40:34;;;;;;;118.38;26.38;;;;;;;;;;4955534;28;20094;-62
2023/01/05 02:43:03;;;;;;;135.18;27.27;;;;;;;;;;4938605;29;20106;-63
2023/01/05 02:45:30;;;;;;;110.38;27.02;;;;;;;;;;4954014;28;20065;-62
2023/01/05 02:47:59;;;;;;;90.30;25.98;;;;;;;;;;4954059;28;20043;-63
2023/01/05 02:50:34;;;;;;;141.13;27.63;;;;;;;;;;4954128;28;20066;-62
2023/01/05 02:53:21;;;;;;;107.38;26.85;;;;;;;;;;4955262;28;20050;-62
2023/01/05 02:56:04;;;;;;;129.40;26.95;;;;;;;;;;4954230;29;20054;-62
2023/01/05 02:58:45;;;;;;;99.85;26.00;;;;;;;;;;4953854;28;20043;-62
2023/01/05 03:01:19;;;;;;;99.40;25.58;;;;;;;;;;4954166;28;20434;-61
2023/01/05 03:03:53;;;;;;;83.45;26.40;;;;;;;;;;4953778;28;20522;-61
2023/01/05 03:06:21;;;;;;;91.97;26.95;;;;;;;;;;4953830;29;20044;-62
2023/01/05 03:08:51;;;;;;;79.25;25.38;;;;;;;;;;4953591;28;20407;-63
2023/01/05 03:14:15;;;;;;;86.40;24.42;;;;;;;;;;4954780;28;20078;-63
2023/01/05 03:16:44;;;;;;;81.32;23.33;;;;;;;;;;4953649;28;20074;-62
2023/01/05 03:36:11;;;;;;;63.47;19.77;;;;;;;;;;4953344;29;20091;-62
2023/01/05 03:38:44;;;;;;;71.13;20.10;;;;;;;;;;4953344;28;20054;-63
2023/01/05 03:41:14;;;;;;;89.38;22.40;;;;;;;;;;4953310;29;20055;-62
2023/01/05 03:43:43;;;;;;;85.13;20.95;;;;;;;;;;4954597;28;20123;-63
2023/01/05 03:46:11;;;;;;;62.88;20.15;;;;;;;;;;4953142;29;20047;-63
2023/01/05 03:48:39;;;;;;;72.00;20.77;;;;;;;;;;4953227;28;20494;-63
2023/01/05 03:51:07;;;;;;;92.82;20.10;;;;;;;;;;4953303;29;20054;-62
2023/01/05 03:53:37;;;;;;;80.47;21.08;;;;;;;;;;4953161;29;20051;-62
2023/01/05 03:56:04;;;;;;;68.63;20.27;;;;;;;;;;4954581;28;20437;-63
2023/01/05 03:58:32;;;;;;;84.85;19.95;;;;;;;;;;4952771;28;20047;-62
2023/01/05 04:01:00;;;;;;;69.57;20.75;;;;;;;;;;4953236;29;20078;-62
2023/01/05 04:03:28;;;;;;;67.30;19.95;;;;;;;;;;4952510;28;20055;-63
2023/01/05 04:06:02;;;;;;;67.95;20.48;;;;;;;;;;4950084;29;20058;-66
2023/01/05 04:08:32;;;;;;;74.65;22.58;;;;;;;;;;4952726;29;20470;-66
2023/01/05 04:11:14;;;;;;;83.43;21.25;;;;;;;;;;4953017;28;20561;-66
2023/01/05 04:13:45;;;;;;;117.05;22.55;;;;;;;;;;4952934;28;20051;-66
2023/01/05 04:16:13;;;;;;;85.20;21.75;;;;;;;;;;4953011;28;20040;-65
2023/01/05 04:18:41;;;;;;;113.93;22.92;;;;;;;;;;4952579;28;20051;-66
2023/01/05 04:21:09;;;;;;;81.95;20.10;;;;;;;;;;4952844;29;20039;-66
2023/01/05 04:23:38;;;;;;;94.55;22.92;;;;;;;;;;4952932;28;20040;-66
2023/01/05 04:26:05;;;;;;;101.57;22.27;;;;;;;;;;4952610;28;20051;-66
2023/01/05 04:28:33;;;;;;;118.13;22.05;;;;;;;;;;4953886;28;20098;-65
2023/01/05 04:31:01;;;;;;;123.85;23.38;;;;;;;;;;4952390;28;20054;-66
2023/01/05 04:33:31;;;;;;;117.20;22.20;;;;;;;;;;4953523;28;20126;-66
2023/01/05 04:36:00;;;;;;;140.63;22.63;;;;;;;;;;4956614;28;20059;-65
2023/01/05 04:38:30;;;;;;;116.55;24.08;;;;;;;;;;4956614;29;20108;-65
2023/01/05 04:40:57;;;;;;;112.65;23.27;;;;;;;;;;4956439;29;20058;-65
2023/01/05 04:43:25;;;;;;;132.57;24.55;;;;;;;;;;4956397;29;20054;-65
2023/01/05 04:45:57;;;;;;;152.40;24.17;;;;;;;;;;4956161;29;20083;-65
2023/01/05 04:48:25;;;;;;;100.72;24.02;;;;;;;;;;4956741;28;20035;-65
2023/01/05 04:50:53;;;;;;;109.50;25.00;;;;;;;;;;4954321;29;20070;-65
2023/01/05 04:53:27;;;;;;;109.18;26.83;;;;;;;;;;4954266;28;20047;-65
2023/01/05 04:55:55;;;;;;;232.63;35.17;;;;;;;;;;4954900;28;20071;-66
2023/01/05 04:58:23;;;;;;;68.15;24.58;;;;;;;;;;4955188;28;20039;-65
2023/01/05 05:00:53;;;;;;;74.03;26.00;;;;;;;;;;4955003;28;20139;-65
2023/01/05 05:03:22;;;;;;;440.58;78.18;;;;;;;;;;4955214;28;20441;-65
2023/01/05 05:05:54;;;;;;;1999.90;528.30;;;;;;;;;;4955964;28;20047;-65
2023/01/05 05:08:22;;;;;;;1121.03;196.25;;;;;;;;;;4956008;29;20086;-65
2023/01/05 05:10:51;;;;;;;1808.38;250.75;;;;;;;;;;4955929;29;20637;-65
2023/01/05 05:13:19;;;;;;;78.85;29.42;;;;;;;;;;4955658;29;20470;-65
2023/01/05 05:15:50;;;;;;;275.20;45.90;;;;;;;;;;4955699;29;20420;-66
2023/01/05 05:18:20;;;;;;;60.72;26.77;;;;;;;;;;4955744;28;20047;-65
2023/01/05 05:20:50;;;;;;;1999.90;675.78;;;;;;;;;;4956807;28;20043;-65
2023/01/05 05:23:18;;;;;;;1999.90;432.23;;;;;;;;;;4955175;28;20102;-65
2023/01/05 05:25:49;;;;;;;1999.90;925.38;;;;;;;;;;4939833;29;20449;-66
2023/01/05 05:28:19;;;;;;;1999.90;803.45;;;;;;;;;;4960578;28;20039;-66
2023/01/05 05:30:48;;;;;;;1925.40;322.98;;;;;;;;;;4972668;28;20051;-66
2023/01/05 05:33:15;;;;;;;1999.90;728.63;;;;;;;;;;4975967;28;20043;-66
2023/01/05 05:35:43;;;;;;;1999.90;386.60;;;;;;;;;;4974866;28;20078;-66
2023/01/05 05:38:10;;;;;;;1971.95;381.20;;;;;;;;;;4975695;28;20039;-66
2023/01/05 05:40:37;;;;;;;347.02;52.85;;;;;;;;;;4974605;28;20093;-66
2023/01/05 05:43:05;;;;;;;1999.90;855.15;;;;;;;;;;4975837;28;20097;-66
2023/01/05 05:45:32;;;;;;;1999.90;479.35;;;;;;;;;;4975337;28;20054;-66
2023/01/05 05:48:00;;;;;;;1999.90;546.03;;;;;;;;;;4975753;28;20046;-67
2023/01/05 05:50:27;;;;;;;1954.97;480.30;;;;;;;;;;4975827;28;20442;-66
2023/01/05 05:52:55;;;;;;;1485.10;241.77;;;;;;;;;;4975775;28;20481;-66
2023/01/05 05:55:22;;;;;;;1999.90;584.35;;;;;;;;;;4975710;28;20536;-66
2023/01/05 05:57:49;;;;;;;1999.90;700.33;;;;;;;;;;4974567;28;20057;-67
2023/01/05 06:00:17;;;;;;;1999.90;347.95;;;;;;;;;;4975486;28;20085;-67
2023/01/05 06:02:44;;;;;;;1999.90;430.60;;;;;;;;;;4974446;28;20054;-66
2023/01/05 06:05:12;;;;;;;1070.10;155.13;;;;;;;;;;4975792;28;20038;-66
2023/01/05 06:07:39;;;;;;;999.28;145.73;;;;;;;;;;4975481;28;20065;-66
2023/01/05 06:10:07;;;;;;;609.40;85.25;;;;;;;;;;4975310;28;20062;-66
2023/01/05 06:12:35;;;;;;;1999.90;453.73;;;;;;;;;;4975397;28;20074;-66
2023/01/05 06:15:03;;;;;;;107.78;38.75;;;;;;;;;;4975187;28;20042;-66
2023/01/05 06:17:31;;;;;;;143.10;33.25;;;;;;;;;;4975346;28;20478;-66
2023/01/05 06:20:00;;;;;;;324.63;61.72;;;;;;;;;;4975510;28;20370;-66
2023/01/05 06:22:27;;;;;;;212.98;52.83;;;;;;;;;;4975290;28;20043;-66
2023/01/05 06:24:54;;;;;;;161.73;32.80;;;;;;;;;;4975245;28;20038;-66
2023/01/05 06:27:22;;;;;;;264.27;48.47;;;;;;;;;;4975181;28;20042;-66
2023/01/05 06:29:49;;;;;;;250.70;37.25;;;;;;;;;;4975150;28;20071;-66
2023/01/05 06:32:17;;;;;;;182.82;24.90;;;;;;;;;;4975071;28;20035;-66
2023/01/05 06:34:44;;;;;;;162.98;24.60;;;;;;;;;;4973715;28;20039;-66
2023/01/05 06:37:11;;;;;;;159.40;23.48;;;;;;;;;;4975299;28;20070;-66
2023/01/05 06:39:39;;;;;;;172.52;23.48;;;;;;;;;;4974976;28;20453;-66
2023/01/05 06:42:06;;;;;;;107.07;26.95;;;;;;;;;;4973632;28;20516;-66
2023/01/05 06:44:34;;;;;;;136.30;37.67;;;;;;;;;;4974812;28;20442;-66
2023/01/05 06:47:02;;;;;;;122.18;33.42;;;;;;;;;;4974755;28;20039;-66
2023/01/05 06:49:29;;;;;;;139.63;30.77;;;;;;;;;;4974677;28;20121;-66
2023/01/05 06:51:57;;;;;;;126.63;35.15;;;;;;;;;;4974744;28;20465;-66
2023/01/05 06:54:24;;;;;;;114.70;31.33;;;;;;;;;;4974926;28;20051;-66
2023/01/05 06:56:51;;;;;;;388.77;45.97;;;;;;;;;;4973837;28;20093;-66
2023/01/05 06:59:19;;;;;;;139.07;34.35;;;;;;;;;;4974418;28;20066;-66
2023/01/05 07:01:46;;;;;;;94.38;24.70;;;;;;;;;;4974516;28;20117;-66
2023/01/05 07:04:14;;;;;;;111.10;26.15;;;;;;;;;;4974452;28;20097;-66
2023/01/05 07:06:41;;;;;;;99.13;25.75;;;;;;;;;;4974394;28;20081;-66
2023/01/05 07:09:09;;;;;;;113.60;27.92;;;;;;;;;;4974404;28;20127;-66
2023/01/05 07:11:37;;;;;;;72.55;27.33;;;;;;;;;;4974330;28;20122;-66
2023/01/05 07:14:04;;;;;;;105.22;31.33;;;;;;;;;;4974108;28;20047;-66
2023/01/05 07:16:32;;;;;;;103.22;33.00;;;;;;;;;;4974249;28;20068;-66
2023/01/05 07:18:59;;;;;;;85.97;32.28;;;;;;;;;;4974142;28;20077;-66
2023/01/05 07:21:26;;;;;;;89.30;31.20;;;;;;;;;;4974319;28;20070;-66
2023/01/05 07:23:54;;;;;;;83.15;30.20;;;;;;;;;;4974143;28;20046;-66
2023/01/05 07:26:21;;;;;;;75.80;29.92;;;;;;;;;;4973999;28;20122;-66
2023/01/05 07:28:49;;;;;;;74.13;31.50;;;;;;;;;;4973779;28;20049;-66
2023/01/05 07:31:16;;;;;;;73.40;30.52;;;;;;;;;;4974147;28;20101;-66
2023/01/05 07:33:44;;;;;;;68.60;30.13;;;;;;;;;;4973816;28;20054;-66
2023/01/05 07:36:12;;;;;;;84.22;36.05;;;;;;;;;;4973631;28;20081;-66
2023/01/05 07:38:39;;;;;;;91.10;37.90;;;;;;;;;;4973852;28;20074;-66
2023/01/05 07:41:07;;;;;;;82.43;35.38;;;;;;;;;;4973808;28;20047;-66
2023/01/05 07:43:35;;;;;;;88.10;38.08;;;;;;;;;;4973716;28;20046;-66
2023/01/05 07:46:03;;;;;;;79.38;33.72;;;;;;;;;;4973882;28;20046;-66
2023/01/05 07:48:31;;;;;;;87.50;37.17;;;;;;;;;;4973789;28;20073;-66
2023/01/05 07:51:03;;;;;;;78.65;35.75;;;;;;;;;;4973643;28;20050;-66
2023/01/05 07:53:31;;;;;;;80.15;34.17;;;;;;;;;;4973674;28;20121;-66
2023/01/05 07:56:05;;;;;;;71.50;32.90;;;;;;;;;;4973663;28;20098;-66
2023/01/05 07:58:33;;;;;;;69.13;33.40;;;;;;;;;;4974227;28;20063;-65
2023/01/05 08:01:08;;;;;;;69.30;32.95;;;;;;;;;;4973471;28;20314;-66
2023/01/05 08:03:36;;;;;;;73.43;33.53;;;;;;;;;;4973606;28;20374;-65
2023/01/05 08:06:07;;;;;;;73.35;34.65;;;;;;;;;;4973739;28;20047;-66
2023/01/05 08:08:34;;;;;;;69.18;32.35;;;;;;;;;;4976626;28;20053;-66
2023/01/05 08:11:06;;;;;;;57.30;29.45;;;;;;;;;;4977574;28;20047;-66
2023/01/05 08:16:20;;;;;;;70.45;31.05;;;;;;;;;;4977486;28;20043;-66
2023/01/05 08:18:47;;;;;;;64.72;32.00;;;;;;;;;;4977284;28;20053;-66
2023/01/05 08:21:15;;;;;;;65.20;32.70;;;;;;;;;;4977108;28;20047;-66
2023/01/05 08:23:44;;;;;;;67.90;32.55;;;;;;;;;;4977310;28;20047;-66
2023/01/05 08:26:13;;;;;;;75.82;34.67;;;;;;;;;;4977277;28;20038;-66
2023/01/05 08:28:41;;;;;;;64.53;34.65;;;;;;;;;;4975964;28;20138;-66
2023/01/05 08:31:19;;;;;;;69.68;32.90;;;;;;;;;;4977111;28;20477;-65
2023/01/05 08:33:47;;;;;;;71.65;34.92;;;;;;;;;;4976887;28;20049;-66
2023/01/05 08:36:18;;;;;;;66.72;34.08;;;;;;;;;;4976930;28;20050;-66
2023/01/05 08:38:51;;;;;;;71.13;34.60;;;;;;;;;;4977034;28;20043;-66
2023/01/05 08:41:19;;;;;;;62.00;33.50;;;;;;;;;;4977003;28;20054;-66
2023/01/05 08:43:51;;;;;;;66.03;34.85;;;;;;;;;;4976555;28;20077;-65
2023/01/05 08:46:19;;;;;;;66.97;36.42;;;;;;;;;;4976933;28;20047;-66
2023/01/05 08:48:50;;;;;;;60.63;32.15;;;;;;;;;;4977119;28;20396;-66
2023/01/05 08:51:18;;;;;;;58.38;32.35;;;;;;;;;;4977038;28;20031;-66
2023/01/05 08:53:46;;;;;;;66.65;32.95;;;;;;;;;;4976924;28;20054;-66
2023/01/05 08:56:14;;;;;;;58.50;32.58;;;;;;;;;;4976696;28;20051;-66
2023/01/05 08:58:41;;;;;;;54.60;32.25;;;;;;;;;;4977010;28;20047;-66
2023/01/05 09:01:09;;;;;;;55.05;31.75;;;;;;;;;;4976512;28;20042;-66
2023/01/05 09:03:37;;;;;;;57.05;32.63;;;;;;;;;;4976609;28;20094;-66
2023/01/05 09:06:08;;;;;;;56.97;32.55;;;;;;;;;;4976496;28;20046;-66
2023/01/05 09:08:36;;;;;;;62.05;34.65;;;;;;;;;;4976410;28;20046;-66
2023/01/05 09:11:22;;;;;;;59.90;32.95;;;;;;;;;;4976743;28;20365;-66
2023/01/05 09:13:51;;;;;;;65.15;34.85;;;;;;;;;;4976483;28;20035;-66
2023/01/05 09:16:20;;;;;;;63.03;35.47;;;;;;;;;;4976290;28;20043;-66
2023/01/05 09:19:08;;;;;;;58.83;33.92;;;;;;;;;;4975321;28;20070;-66
2023/01/05 09:21:38;;;;;;;57.30;33.13;;;;;;;;;;4976216;28;20070;-66
2023/01/05 09:24:13;;;;;;;54.38;32.92;;;;;;;;;;4976230;28;20051;-66
2023/01/05 09:26:41;;;;;;;52.28;31.83;;;;;;;;;;4976237;28;20046;-66
2023/01/05 09:29:08;;;;;;;49.83;31.08;;;;;;;;;;4976071;28;20047;-65
2023/01/05 09:31:36;;;;;;;51.33;30.52;;;;;;;;;;4974791;28;20465;-66
2023/01/05 09:34:03;;;;;;;51.25;32.40;;;;;;;;;;4976164;28;20047;-67
2023/01/05 09:36:31;;;;;;;55.17;34.05;;;;;;;;;;4975899;28;20475;-66
2023/01/05 09:38:58;;;;;;;81.70;46.80;;;;;;;;;;4975985;28;20485;-65
2023/01/05 09:41:43;;;;;;;63.25;38.88;;;;;;;;;;4975929;28;20537;-65
2023/01/05 09:44:26;;;;;;;47.67;31.93;;;;;;;;;;4975764;28;20413;-65
2023/01/05 09:46:55;;;;;;;52.17;32.67;;;;;;;;;;4974402;28;20290;-65
2023/01/05 09:49:24;;;;;;;88.88;38.83;;;;;;;;;;4975664;28;20074;-65
2023/01/05 09:51:55;;;;;;;61.55;35.00;;;;;;;;;;4975702;28;20054;-65
2023/01/05 09:54:24;;;;;;;47.70;30.30;;;;;;;;;;4975965;28;20051;-66
2023/01/05 09:56:52;;;;;;;41.65;27.77;;;;;;;;;;4974586;28;20551;-65
2023/01/05 09:59:38;;;;;;;43.50;28.45;;;;;;;;;;4975776;28;20043;-66
2023/01/05 10:02:19;;;;;;;39.35;26.35;;;;;;;;;;4975610;28;20058;-66
2023/01/05 10:04:47;;;;;;;44.22;28.75;;;;;;;;;;4975518;28;20045;-67
2023/01/05 10:07:20;;;;;;;41.17;27.48;;;;;;;;;;4975314;28;20046;-67
2023/01/05 10:09:48;;;;;;;48.10;31.65;;;;;;;;;;4973994;28;20417;-66
2023/01/05 10:15:15;;;;;;;56.03;33.97;;;;;;;;;;4973876;28;20051;-66
2023/01/05 10:17:43;;;;;;;42.28;29.55;;;;;;;;;;4975072;28;20289;-65
2023/01/05 10:20:15;;;;;;;38.95;26.83;;;;;;;;;;4975188;28;20523;-66
2023/01/05 10:22:56;;;;;;;40.58;26.83;;;;;;;;;;4975137;28;20119;-65
2023/01/05 10:25:45;;;;;;;36.65;25.25;;;;;;;;;;4975123;28;20043;-66
2023/01/05 10:28:15;;;;;;;38.65;26.70;;;;;;;;;;4974976;28;20397;-65
2023/01/05 10:30:52;;;;;;;39.63;26.05;;;;;;;;;;4974864;28;20039;-66
2023/01/05 10:33:25;;;;;;;37.88;24.33;;;;;;;;;;4974861;28;20121;-66
2023/01/05 10:36:20;;;;;;;36.08;24.13;;;;;;;;;;4974769;28;20409;-66
2023/01/05 10:39:12;;;;;;;38.85;26.23;;;;;;;;;;4974798;28;20498;-66
2023/01/05 10:41:39;;;;;;;39.47;26.17;;;;;;;;;;4973856;28;20416;-66
2023/01/05 10:44:28;;;;;;;35.85;25.35;;;;;;;;;;4974581;28;20138;-66
2023/01/05 10:46:55;;;;;;;35.05;23.83;;;;;;;;;;4974674;28;20535;-66
2023/01/05 10:49:27;;;;;;;39.17;24.60;;;;;;;;;;4974665;28;20074;-65
2023/01/05 10:51:59;;;;;;;35.30;24.13;;;;;;;;;;4974520;28;20039;-66
2023/01/05 10:54:29;;;;;;;38.35;24.55;;;;;;;;;;4974539;28;20058;-66
2023/01/05 10:57:16;;;;;;;35.00;23.90;;;;;;;;;;4974605;28;20046;-66
2023/01/05 10:59:54;;;;;;;34.35;23.58;;;;;;;;;;4974256;28;20031;-66
2023/01/05 11:02:21;;;;;;;35.65;22.58;;;;;;;;;;4973494;28;20117;-66
2023/01/05 11:04:49;;;;;;;34.42;22.63;;;;;;;;;;4973228;28;20066;-66
2023/01/05 11:07:17;;;;;;;33.00;22.08;;;;;;;;;;4973948;28;20066;-66
2023/01/05 11:09:47;;;;;;;31.05;21.83;;;;;;;;;;4973762;28;20144;-66
2023/01/05 11:12:19;;;;;;;31.98;21.90;;;;;;;;;;4972916;28;20507;-66
2023/01/05 11:14:51;;;;;;;31.55;22.23;;;;;;;;;;4972950;28;20042;-66
2023/01/05 11:17:26;;;;;;;32.33;21.75;;;;;;;;;;4974091;28;20481;-66
2023/01/05 11:19:55;;;;;;;32.58;21.45;;;;;;;;;;4973951;28;20074;-65
2023/01/05 11:22:50;;;;;;;31.95;21.50;;;;;;;;;;4972315;28;20401;-64
2023/01/05 11:25:31;;;;;;;32.50;20.50;;;;;;;;;;4972425;28;20059;-65
2023/01/05 11:28:04;;;;;;;29.70;19.77;;;;;;;;;;4972652;28;20113;-65
2023/01/05 11:30:32;;;;;;;30.13;19.30;;;;;;;;;;4971064;28;20109;-65
2023/01/05 11:33:00;;;;;;;27.25;19.77;;;;;;;;;;4954063;28;20074;-67
2023/01/05 11:35:33;;;;;;;29.17;19.27;;;;;;;;;;4953885;28;20497;-66
2023/01/05 11:38:00;;;;;;;30.25;20.02;;;;;;;;;;4953820;28;20058;-66
2023/01/05 11:40:33;;;;;;;27.90;19.08;;;;;;;;;;4954160;28;20486;-66
2023/01/05 11:43:00;;;;;;;26.80;18.17;;;;;;;;;;4953546;28;20054;-66
2023/01/05 11:45:33;;;;;;;30.33;18.80;;;;;;;;;;4952638;29;20564;-66
2023/01/05 11:48:03;;;;;;;28.92;20.20;;;;;;;;;;4953896;28;20405;-66
2023/01/05 11:50:31;;;;;;;29.83;19.67;;;;;;;;;;4954106;28;20074;-66
2023/01/05 11:53:02;;;;;;;34.42;21.00;;;;;;;;;;4954294;28;20047;-66
2023/01/05 11:55:29;;;;;;;30.63;19.38;;;;;;;;;;4954251;28;20051;-66
2023/01/05 11:58:16;;;;;;;27.08;18.55;;;;;;;;;;4954433;28;20043;-66
2023/01/05 12:00:49;;;;;;;30.30;19.67;;;;;;;;;;4954388;28;20126;-66
2023/01/05 12:03:17;;;;;;;27.90;19.05;;;;;;;;;;4954380;28;20051;-66
2023/01/05 12:05:44;;;;;;;29.50;18.85;;;;;;;;;;4953269;29;20142;-66
2023/01/05 12:08:17;;;;;;;30.50;17.50;;;;;;;;;;4954286;29;20038;-66
2023/01/05 12:10:54;;;;;;;26.27;17.58;;;;;;;;;;4954247;28;20051;-66
2023/01/05 12:13:24;;;;;;;26.30;17.63;;;;;;;;;;4954276;28;20040;-66
2023/01/05 12:16:05;;;;;;;25.60;18.20;;;;;;;;;;4954158;28;20489;-66
2023/01/05 12:18:35;;;;;;;30.08;18.17;;;;;;;;;;4954233;28;20050;-66
2023/01/05 12:21:26;;;;;;;25.27;17.20;;;;;;;;;;4954128;28;20058;-66
2023/01/05 12:23:53;;;;;;;27.02;17.77;;;;;;;;;;4949283;29;20058;-66
2023/01/05 12:26:25;;;;;;;28.75;18.15;;;;;;;;;;4954092;28;20082;-66
2023/01/05 12:29:11;;;;;;;27.25;17.58;;;;;;;;;;4954145;29;20075;-66
2023/01/05 12:32:04;;;;;;;26.77;17.52;;;;;;;;;;4953148;29;20383;-66
2023/01/05 12:35:07;;;;;;;25.88;16.30;;;;;;;;;;4953985;29;20047;-66
2023/01/05 12:37:47;;;;;;;28.50;15.93;;;;;;;;;;4952813;28;20071;-66
2023/01/05 12:40:14;;;;;;;20.23;14.52;;;;;;;;;;4952954;28;20086;-66
2023/01/05 12:42:41;;;;;;;25.45;15.73;;;;;;;;;;4953868;28;20066;-67
2023/01/05 12:45:18;;;;;;;24.90;16.15;;;;;;;;;;4953974;28;20417;-66
2023/01/05 12:47:49;;;;;;;22.00;14.70;;;;;;;;;;4953837;28;20057;-66
2023/01/05 12:50:31;;;;;;;21.20;14.20;;;;;;;;;;4954102;28;20043;-66
2023/01/05 12:53:08;;;;;;;20.02;14.00;;;;;;;;;;4953945;28;20055;-66
2023/01/05 12:55:39;;;;;;;22.48;14.68;;;;;;;;;;4955306;29;20043;-66
2023/01/05 12:58:28;;;;;;;22.50;14.88;;;;;;;;;;4957746;28;20057;-66
2023/01/05 13:00:56;;;;;;;22.45;14.98;;;;;;;;;;4957449;29;20179;-66
2023/01/05 13:03:24;;;;;;;22.80;14.38;;;;;;;;;;4957359;28;20046;-66
2023/01/05 13:05:56;;;;;;;21.52;14.10;;;;;;;;;;4957591;28;20142;-66
2023/01/05 13:08:32;;;;;;;22.50;14.05;;;;;;;;;;4955725;29;20446;-66
2023/01/05 13:11:03;;;;;;;20.90;13.70;;;;;;;;;;4957020;28;20433;-66
2023/01/05 13:13:48;;;;;;;22.35;15.25;;;;;;;;;;4957147;28;20098;-66
2023/01/05 13:16:21;;;;;;;23.33;15.02;;;;;;;;;;4957704;28;20050;-67
2023/01/05 13:18:51;;;;;;;25.75;16.27;;;;;;;;;;4957235;28;20043;-66
2023/01/05 13:21:21;;;;;;;26.08;16.80;;;;;;;;;;4956962;29;20058;-67
2023/01/05 13:23:59;;;;;;;26.58;17.65;;;;;;;;;;4955902;29;20039;-66
2023/01/05 13:26:26;;;;;;;29.42;18.35;;;;;;;;;;4957002;28;20123;-66
2023/01/05 13:29:00;;;;;;;26.13;17.30;;;;;;;;;;4956867;28;20067;-66
2023/01/05 13:31:27;;;;;;;27.98;18.08;;;;;;;;;;4956853;28;20075;-67
2023/01/05 13:34:13;;;;;;;29.17;17.90;;;;;;;;;;4956706;28;20047;-67
2023/01/05 13:36:50;;;;;;;29.45;18.17;;;;;;;;;;4956696;29;20043;-66
2023/01/05 13:39:21;;;;;;;25.60;16.55;;;;;;;;;;4956716;29;20079;-66
2023/01/05 13:42:07;;;;;;;33.47;20.75;;;;;;;;;;4956743;28;20051;-66
2023/01/05 13:44:42;;;;;;;22.75;14.45;;;;;;;;;;4956412;28;20066;-66
2023/01/05 13:47:15;;;;;;;18.88;13.30;;;;;;;;;;4956689;28;20457;-66
2023/01/05 13:49:56;;;;;;;20.65;13.43;;;;;;;;;;4956371;28;20046;-66
2023/01/05 13:52:41;;;;;;;23.73;13.35;;;;;;;;;;4956380;28;20047;-66
2023/01/05 13:55:12;;;;;;;20.65;13.38;;;;;;;;;;4955153;29;20493;-66
2023/01/05 13:57:48;;;;;;;17.58;12.45;;;;;;;;;;4956366;28;20039;-67
2023/01/05 14:00:21;;;;;;;23.90;12.80;;;;;;;;;;4956562;28;20458;-67
2023/01/05 14:03:06;;;;;;;20.00;12.35;;;;;;;;;;4956209;28;20057;-66
2023/01/05 14:05:53;;;;;;;18.20;12.40;;;;;;;;;;4955896;28;20051;-67
2023/01/05 14:08:25;;;;;;;20.90;13.23;;;;;;;;;;4956141;28;20035;-66
2023/01/05 14:11:13;;;;;;;19.40;12.43;;;;;;;;;;4956208;28;20045;-67
2023/01/05 14:13:42;;;;;;;19.55;12.45;;;;;;;;;;4955915;28;20485;-66
2023/01/05 14:16:28;;;;;;;21.25;12.85;;;;;;;;;;4956235;28;20430;-66
2023/01/05 14:19:09;;;;;;;20.15;13.55;;;;;;;;;;4954920;29;20039;-66
2023/01/05 14:21:59;;;;;;;20.92;12.48;;;;;;;;;;4956036;28;20549;-66
2023/01/05 14:24:38;;;;;;;22.10;13.02;;;;;;;;;;4949777;28;20055;-67
2023/01/05 14:27:14;;;;;;;20.52;14.10;;;;;;;;;;4955915;28;20043;-66
2023/01/05 14:29:47;;;;;;;23.95;13.80;;;;;;;;;;4954964;29;20621;-66
2023/01/05 14:32:18;;;;;;;24.20;14.40;;;;;;;;;;4955630;28;20596;-66
2023/01/05 14:34:47;;;;;;;22.13;14.35;;;;;;;;;;4969821;28;20460;-66
2023/01/05 14:37:20;;;;;;;24.13;15.30;;;;;;;;;;4974875;28;20449;-66
2023/01/05 14:39:51;;;;;;;23.63;15.10;;;;;;;;;;4973431;28;20045;-66
2023/01/05 14:42:24;;;;;;;27.30;15.48;;;;;;;;;;4974711;28;20043;-65
2023/01/05 14:44:59;;;;;;;22.50;14.52;;;;;;;;;;4957185;28;20071;-68
2023/01/05 14:47:35;;;;;;;22.13;14.77;;;;;;;;;;4955655;28;20363;-68
2023/01/05 14:50:03;;;;;;;22.88;14.82;;;;;;;;;;4955324;28;20465;-68
2023/01/05 14:52:50;;;;;;;23.40;14.55;;;;;;;;;;4938401;29;20118;-68
2023/01/05 14:55:20;;;;;;;24.63;16.10;;;;;;;;;;4955271;28;20493;-65
2023/01/05 14:58:09;;;;;;;23.83;15.50;;;;;;;;;;4955525;28;20114;-65
2023/01/05 15:00:41;;;;;;;22.45;15.40;;;;;;;;;;4954845;28;20039;-65
2023/01/05 15:03:08;;;;;;;22.38;15.07;;;;;;;;;;4935685;29;20048;-65
2023/01/05 15:05:37;;;;;;;25.95;16.45;;;;;;;;;;4935784;29;20046;-65
2023/01/05 15:08:20;;;;;;;30.33;16.50;;;;;;;;;;4950433;29;20044;-65
2023/01/05 15:10:51;;;;;;;22.65;15.13;;;;;;;;;;4935889;29;20073;-65
2023/01/05 15:13:37;;;;;;;23.80;15.45;;;;;;;;;;4943599;28;20129;-65